WAT237 SCCI-SUMU
Flight info
| Callsign | WAT237 |
|---|---|
| Flight time | 3h 0m |
| Altitude | 39000 |
| Route | NAS UP664 GAL UT109 IRAVU UZ117 DONED UW33 MDP UM792 DAGUS |
| Aircraft | CL60/M-SBDE1E2E3FGHIJ1J4J5J7M3RWXYZ/LB1V1D1 |
Departure
| Time | 2026-04-22 13:02 |
|---|---|
| Airport | President Carlos Ibáñez International Airport (SCCI) |
Arrival
| Time | 2026-04-22 16:03 |
|---|---|
| Airport | Carrasco General Cesáreo L. Berisso International Airport (SUMU) |
| Time | Latitude | Longitude | Altitude | Speed | Heading |
|---|---|---|---|---|---|
| 2026-04-22 12:28 | -53.00473 | -70.84534 | 134 ft | 0 kts | 273° |
| 2026-04-22 12:57 | -53.00473 | -70.84538 | 134 ft | 1 kts | 272° |
| 2026-04-22 12:57 | -53.00441 | -70.84567 | 133 ft | 9 kts | 11° |
| 2026-04-22 12:57 | -53.00387 | -70.84511 | 132 ft | 9 kts | 59° |
| 2026-04-22 12:57 | -53.00379 | -70.84394 | 132 ft | 5 kts | 79° |
| 2026-04-22 12:58 | -53.00338 | -70.84373 | 132 ft | 8 kts | 358° |
| 2026-04-22 12:58 | -53.00273 | -70.84373 | 132 ft | 10 kts | 9° |
| 2026-04-22 12:58 | -53.00243 | -70.84270 | 131 ft | 12 kts | 96° |
| 2026-04-22 12:58 | -53.00242 | -70.84104 | 130 ft | 15 kts | 88° |
| 2026-04-22 12:59 | -53.00240 | -70.83907 | 130 ft | 18 kts | 90° |
| 2026-04-22 12:59 | -53.00238 | -70.83675 | 129 ft | 21 kts | 89° |
| 2026-04-22 12:59 | -53.00236 | -70.83487 | 127 ft | 15 kts | 90° |
| 2026-04-22 12:59 | -53.00212 | -70.83413 | 127 ft | 9 kts | 357° |
| 2026-04-22 13:00 | -53.00141 | -70.83418 | 126 ft | 10 kts | 358° |
| 2026-04-22 13:00 | -53.00072 | -70.83424 | 125 ft | 8 kts | 335° |
| 2026-04-22 13:00 | -53.00064 | -70.83472 | 126 ft | 0 kts | 264° |
| 2026-04-22 13:01 | -53.00064 | -70.83485 | 126 ft | 10 kts | 265° |
| 2026-04-22 13:01 | -53.00073 | -70.84168 | 130 ft | 110 kts | 269° |
| 2026-04-22 13:02 | -53.00108 | -70.85809 | 416 ft | 165 kts | 274° |
| 2026-04-22 13:02 | -53.00150 | -70.87756 | 1344 ft | 184 kts | 274° |
| 2026-04-22 13:02 | -53.00220 | -70.89946 | 2092 ft | 198 kts | 274° |
| 2026-04-22 13:02 | -53.00301 | -70.92332 | 2904 ft | 215 kts | 274° |
| 2026-04-22 13:03 | -53.00206 | -70.94771 | 3824 ft | 213 kts | 294° |
| 2026-04-22 13:03 | -52.99358 | -70.96686 | 4805 ft | 214 kts | 317° |
| 2026-04-22 13:03 | -52.98056 | -70.97816 | 5839 ft | 220 kts | 337° |
| 2026-04-22 13:03 | -52.96486 | -70.97861 | 6870 ft | 242 kts | 360° |
| 2026-04-22 13:04 | -52.94918 | -70.96466 | 7888 ft | 275 kts | 24° |
| 2026-04-22 13:04 | -52.93432 | -70.94447 | 8884 ft | 284 kts | 26° |
| 2026-04-22 13:04 | -52.91902 | -70.92358 | 9886 ft | 290 kts | 26° |
| 2026-04-22 13:04 | -52.90329 | -70.90221 | 10929 ft | 297 kts | 26° |
| 2026-04-22 13:05 | -52.88730 | -70.88053 | 11954 ft | 305 kts | 27° |
| 2026-04-22 13:05 | -52.87060 | -70.85805 | 12838 ft | 323 kts | 28° |
| 2026-04-22 13:05 | -52.85223 | -70.83350 | 13370 ft | 352 kts | 30° |
| 2026-04-22 13:05 | -52.83288 | -70.80744 | 14212 ft | 367 kts | 30° |
| 2026-04-22 13:06 | -52.81317 | -70.78082 | 15191 ft | 374 kts | 31° |
| 2026-04-22 13:06 | -52.79308 | -70.75369 | 16176 ft | 381 kts | 32° |
| 2026-04-22 13:06 | -52.77239 | -70.72585 | 17124 ft | 387 kts | 32° |
| 2026-04-22 13:06 | -52.75155 | -70.69785 | 18027 ft | 394 kts | 32° |
| 2026-04-22 13:07 | -52.73023 | -70.66924 | 18936 ft | 399 kts | 32° |
| 2026-04-22 13:07 | -52.70868 | -70.64039 | 19743 ft | 406 kts | 32° |
| 2026-04-22 13:07 | -52.68665 | -70.61095 | 20506 ft | 414 kts | 32° |
| 2026-04-22 13:07 | -52.66405 | -70.58082 | 21248 ft | 421 kts | 32° |
| 2026-04-22 13:08 | -52.64118 | -70.55035 | 21954 ft | 428 kts | 32° |
| 2026-04-22 13:08 | -52.61797 | -70.51949 | 22607 ft | 436 kts | 32° |
| 2026-04-22 13:08 | -52.59421 | -70.48795 | 23340 ft | 441 kts | 33° |
| 2026-04-22 13:08 | -52.57048 | -70.45648 | 23998 ft | 447 kts | 32° |
| 2026-04-22 13:09 | -52.54627 | -70.42445 | 24638 ft | 452 kts | 33° |
| 2026-04-22 13:09 | -52.52177 | -70.39205 | 25305 ft | 456 kts | 33° |
| 2026-04-22 13:09 | -52.49690 | -70.35924 | 25891 ft | 461 kts | 33° |
| 2026-04-22 13:09 | -52.47179 | -70.32616 | 26459 ft | 465 kts | 32° |
| 2026-04-22 13:10 | -52.44643 | -70.29281 | 27030 ft | 469 kts | 32° |
| 2026-04-22 13:10 | -52.42115 | -70.25962 | 27556 ft | 472 kts | 32° |
| 2026-04-22 13:10 | -52.39527 | -70.22568 | 28052 ft | 476 kts | 32° |
| 2026-04-22 13:10 | -52.36927 | -70.19165 | 28538 ft | 480 kts | 32° |
| 2026-04-22 13:11 | -52.34306 | -70.15742 | 28975 ft | 484 kts | 32° |
| 2026-04-22 13:11 | -52.31641 | -70.12267 | 29381 ft | 489 kts | 32° |
| 2026-04-22 13:11 | -52.28957 | -70.08772 | 29785 ft | 493 kts | 32° |
| 2026-04-22 13:11 | -52.26272 | -70.05280 | 30280 ft | 494 kts | 32° |
| 2026-04-22 13:12 | -52.23572 | -70.01776 | 30600 ft | 499 kts | 32° |
| 2026-04-22 13:12 | -52.20881 | -69.98289 | 30978 ft | 501 kts | 32° |
| 2026-04-22 13:12 | -52.18145 | -69.94748 | 31354 ft | 502 kts | 32° |
| 2026-04-22 13:12 | -52.15408 | -69.91213 | 31729 ft | 503 kts | 32° |
| 2026-04-22 13:13 | -52.12653 | -69.87659 | 32072 ft | 504 kts | 32° |
| 2026-04-22 13:13 | -52.09924 | -69.84148 | 32373 ft | 505 kts | 32° |
| 2026-04-22 13:13 | -52.07148 | -69.80603 | 32632 ft | 506 kts | 31° |
| 2026-04-22 13:13 | -52.04270 | -69.77396 | 32948 ft | 501 kts | 26° |
| 2026-04-22 13:14 | -52.01371 | -69.74387 | 33206 ft | 502 kts | 26° |
| 2026-04-22 13:14 | -51.98417 | -69.71320 | 33493 ft | 502 kts | 26° |
| 2026-04-22 13:14 | -51.95490 | -69.68279 | 34059 ft | 494 kts | 26° |
| 2026-04-22 13:14 | -51.92667 | -69.65341 | 34876 ft | 477 kts | 25° |
| 2026-04-22 13:15 | -51.89938 | -69.62505 | 35745 ft | 459 kts | 25° |
| 2026-04-22 13:15 | -51.87273 | -69.59743 | 36424 ft | 446 kts | 25° |
| 2026-04-22 13:15 | -51.84655 | -69.57040 | 36832 ft | 441 kts | 24° |
| 2026-04-22 13:15 | -51.82075 | -69.54385 | 37108 ft | 440 kts | 25° |
| 2026-04-22 13:16 | -51.79504 | -69.51745 | 37308 ft | 441 kts | 24° |
| 2026-04-22 13:16 | -51.76903 | -69.49078 | 37497 ft | 443 kts | 25° |
| 2026-04-22 13:16 | -51.74314 | -69.46423 | 37708 ft | 444 kts | 25° |
| 2026-04-22 13:16 | -51.71724 | -69.43770 | 37940 ft | 443 kts | 25° |
| 2026-04-22 13:17 | -51.69118 | -69.41104 | 38142 ft | 443 kts | 25° |
| 2026-04-22 13:17 | -51.66553 | -69.38482 | 38348 ft | 442 kts | 25° |
| 2026-04-22 13:17 | -51.63965 | -69.35841 | 38511 ft | 443 kts | 25° |
| 2026-04-22 13:18 | -51.58534 | -69.31113 | 38571 ft | 441 kts | 14° |
| 2026-04-22 13:18 | -51.52835 | -69.27193 | 38562 ft | 452 kts | 15° |
| 2026-04-22 13:19 | -51.47006 | -69.23174 | 38590 ft | 460 kts | 15° |
| 2026-04-22 13:19 | -51.41072 | -69.19089 | 38594 ft | 468 kts | 15° |
| 2026-04-22 13:20 | -51.35106 | -69.14990 | 38592 ft | 473 kts | 15° |
| 2026-04-22 13:20 | -51.29069 | -69.10848 | 38592 ft | 474 kts | 15° |
| 2026-04-22 13:21 | -51.23014 | -69.06704 | 38613 ft | 474 kts | 15° |
| 2026-04-22 13:21 | -51.16964 | -69.02574 | 38630 ft | 472 kts | 16° |
| 2026-04-22 13:22 | -51.10943 | -68.98478 | 38633 ft | 472 kts | 16° |
| 2026-04-22 13:22 | -51.04869 | -68.94357 | 38630 ft | 472 kts | 16° |
| 2026-04-22 13:23 | -50.98833 | -68.90274 | 38625 ft | 471 kts | 16° |
| 2026-04-22 13:23 | -50.92838 | -68.86230 | 38623 ft | 470 kts | 16° |
| 2026-04-22 13:24 | -50.86790 | -68.82162 | 38629 ft | 470 kts | 16° |
| 2026-04-22 13:24 | -50.80820 | -68.78159 | 38618 ft | 471 kts | 16° |
| 2026-04-22 13:25 | -50.74885 | -68.73771 | 38641 ft | 477 kts | 23° |
| 2026-04-22 13:25 | -50.69175 | -68.68504 | 38644 ft | 477 kts | 24° |
| 2026-04-22 13:26 | -50.63449 | -68.63242 | 38644 ft | 476 kts | 24° |
| 2026-04-22 13:26 | -50.57741 | -68.58015 | 38663 ft | 477 kts | 24° |
| 2026-04-22 13:27 | -50.52023 | -68.52798 | 38660 ft | 477 kts | 24° |
| 2026-04-22 13:27 | -50.46287 | -68.47580 | 38671 ft | 476 kts | 24° |
| 2026-04-22 13:28 | -50.40608 | -68.42429 | 38671 ft | 475 kts | 24° |
| 2026-04-22 13:28 | -50.34884 | -68.37254 | 38670 ft | 475 kts | 24° |
| 2026-04-22 13:29 | -50.29184 | -68.32117 | 38686 ft | 475 kts | 23° |
| 2026-04-22 13:29 | -50.23463 | -68.26976 | 38677 ft | 474 kts | 23° |
| 2026-04-22 13:30 | -50.17773 | -68.21877 | 38669 ft | 475 kts | 23° |
| 2026-04-22 13:30 | -50.12065 | -68.16777 | 38665 ft | 474 kts | 23° |
| 2026-04-22 13:31 | -50.06339 | -68.11674 | 38676 ft | 474 kts | 23° |
| 2026-04-22 13:31 | -50.00633 | -68.06605 | 38681 ft | 473 kts | 23° |
| 2026-04-22 13:32 | -49.94922 | -68.01544 | 38693 ft | 473 kts | 23° |
| 2026-04-22 13:32 | -49.89220 | -67.96507 | 38694 ft | 473 kts | 24° |
| 2026-04-22 13:33 | -49.83493 | -67.91461 | 38700 ft | 473 kts | 24° |
| 2026-04-22 13:33 | -49.77792 | -67.86452 | 38713 ft | 473 kts | 24° |
| 2026-04-22 13:34 | -49.72075 | -67.81441 | 38713 ft | 473 kts | 24° |
| 2026-04-22 13:34 | -49.66349 | -67.76621 | 38714 ft | 471 kts | 22° |
| 2026-04-22 13:35 | -49.60588 | -67.71867 | 38725 ft | 471 kts | 22° |
| 2026-04-22 13:35 | -49.54823 | -67.67122 | 38722 ft | 470 kts | 22° |
| 2026-04-22 13:36 | -49.49078 | -67.62405 | 38732 ft | 470 kts | 22° |
| 2026-04-22 13:36 | -49.43321 | -67.57689 | 38729 ft | 469 kts | 22° |
| 2026-04-22 13:37 | -49.37593 | -67.53009 | 38731 ft | 469 kts | 23° |
| 2026-04-22 13:37 | -49.31844 | -67.48324 | 38730 ft | 468 kts | 23° |
| 2026-04-22 13:38 | -49.26149 | -67.43694 | 38734 ft | 467 kts | 23° |
| 2026-04-22 13:38 | -49.17545 | -67.36724 | 38738 ft | 466 kts | 23° |
| 2026-04-22 13:39 | -49.11861 | -67.32134 | 38731 ft | 465 kts | 22° |
| 2026-04-22 13:39 | -49.06186 | -67.27562 | 38743 ft | 464 kts | 22° |
| 2026-04-22 13:40 | -49.00497 | -67.22992 | 38750 ft | 462 kts | 22° |
| 2026-04-22 13:40 | -48.94831 | -67.18452 | 38757 ft | 461 kts | 22° |
| 2026-04-22 13:41 | -48.89179 | -67.13934 | 38763 ft | 460 kts | 22° |
| 2026-04-22 13:41 | -48.83485 | -67.09396 | 38766 ft | 460 kts | 23° |
| 2026-04-22 13:42 | -48.77839 | -67.04906 | 38767 ft | 459 kts | 23° |
| 2026-04-22 13:42 | -48.72203 | -67.00436 | 38772 ft | 459 kts | 22° |
| 2026-04-22 13:43 | -48.66581 | -66.95988 | 38770 ft | 458 kts | 23° |
| 2026-04-22 13:43 | -48.60965 | -66.91557 | 38772 ft | 457 kts | 23° |
| 2026-04-22 13:44 | -48.55307 | -66.87103 | 38775 ft | 457 kts | 23° |
| 2026-04-22 13:44 | -48.49676 | -66.82683 | 38767 ft | 456 kts | 23° |
| 2026-04-22 13:45 | -48.44028 | -66.78259 | 38774 ft | 456 kts | 23° |
| 2026-04-22 13:45 | -48.38408 | -66.73869 | 38781 ft | 457 kts | 23° |
| 2026-04-22 13:46 | -48.32806 | -66.69504 | 38783 ft | 456 kts | 23° |
| 2026-04-22 13:46 | -48.27184 | -66.65134 | 38779 ft | 455 kts | 23° |
| 2026-04-22 13:47 | -48.21582 | -66.60791 | 38781 ft | 455 kts | 23° |
| 2026-04-22 13:47 | -48.15969 | -66.56451 | 38774 ft | 455 kts | 23° |
| 2026-04-22 13:48 | -48.10349 | -66.52115 | 38777 ft | 456 kts | 23° |
| 2026-04-22 13:48 | -48.04728 | -66.47790 | 38774 ft | 456 kts | 23° |
| 2026-04-22 13:49 | -47.99075 | -66.43449 | 38782 ft | 455 kts | 23° |
| 2026-04-22 13:49 | -47.93471 | -66.39158 | 38778 ft | 455 kts | 23° |
| 2026-04-22 13:50 | -47.87854 | -66.34867 | 38778 ft | 455 kts | 22° |
| 2026-04-22 13:50 | -47.82225 | -66.30578 | 38784 ft | 455 kts | 22° |
| 2026-04-22 13:51 | -47.76603 | -66.26304 | 38782 ft | 455 kts | 22° |
| 2026-04-22 13:51 | -47.70974 | -66.22035 | 38779 ft | 455 kts | 22° |
| 2026-04-22 13:52 | -47.65355 | -66.17786 | 38786 ft | 455 kts | 22° |
| 2026-04-22 13:52 | -47.59758 | -66.13563 | 38779 ft | 454 kts | 22° |
| 2026-04-22 13:53 | -47.54115 | -66.09315 | 38781 ft | 455 kts | 22° |
| 2026-04-22 13:53 | -47.48495 | -66.05096 | 38780 ft | 455 kts | 22° |
| 2026-04-22 13:54 | -47.42860 | -66.00874 | 38779 ft | 455 kts | 22° |
| 2026-04-22 13:54 | -47.37219 | -65.96658 | 38782 ft | 455 kts | 22° |
| 2026-04-22 13:55 | -47.31583 | -65.92458 | 38778 ft | 455 kts | 22° |
| 2026-04-22 13:55 | -47.25969 | -65.88282 | 38780 ft | 454 kts | 22° |
| 2026-04-22 13:56 | -47.20334 | -65.84101 | 38775 ft | 454 kts | 22° |
| 2026-04-22 13:56 | -47.14702 | -65.79933 | 38781 ft | 454 kts | 22° |
| 2026-04-22 13:57 | -47.09090 | -65.75790 | 38788 ft | 453 kts | 22° |
| 2026-04-22 13:57 | -47.03446 | -65.71632 | 38799 ft | 453 kts | 22° |
| 2026-04-22 13:58 | -46.97819 | -65.67497 | 38805 ft | 454 kts | 22° |
| 2026-04-22 13:58 | -46.92193 | -65.63374 | 38798 ft | 453 kts | 22° |
| 2026-04-22 13:59 | -46.86594 | -65.59278 | 38782 ft | 452 kts | 22° |
| 2026-04-22 13:59 | -46.80986 | -65.55186 | 38800 ft | 453 kts | 22° |
| 2026-04-22 14:00 | -46.75360 | -65.51091 | 38807 ft | 454 kts | 22° |
| 2026-04-22 14:00 | -46.69728 | -65.46999 | 38799 ft | 451 kts | 22° |
| 2026-04-22 14:01 | -46.64133 | -65.42945 | 38802 ft | 450 kts | 22° |
| 2026-04-22 14:01 | -46.58536 | -65.38899 | 38807 ft | 450 kts | 22° |
| 2026-04-22 14:02 | -46.52967 | -65.34883 | 38792 ft | 450 kts | 21° |
| 2026-04-22 14:02 | -46.47364 | -65.30852 | 38804 ft | 449 kts | 21° |
| 2026-04-22 14:03 | -46.41795 | -65.26853 | 38802 ft | 449 kts | 21° |
| 2026-04-22 14:03 | -46.36224 | -65.22862 | 38798 ft | 448 kts | 21° |
| 2026-04-22 14:04 | -46.30664 | -65.18890 | 38806 ft | 448 kts | 21° |
| 2026-04-22 14:04 | -46.25118 | -65.14934 | 38814 ft | 447 kts | 21° |
| 2026-04-22 14:05 | -46.19562 | -65.10983 | 38813 ft | 446 kts | 21° |
| 2026-04-22 14:06 | -46.11225 | -65.05069 | 38816 ft | 446 kts | 21° |
| 2026-04-22 14:06 | -46.05680 | -65.01147 | 38829 ft | 445 kts | 21° |
| 2026-04-22 14:07 | -46.00136 | -64.97234 | 38824 ft | 444 kts | 21° |
| 2026-04-22 14:07 | -45.94628 | -64.93356 | 38821 ft | 444 kts | 21° |
| 2026-04-22 14:08 | -45.89086 | -64.89462 | 38822 ft | 443 kts | 21° |
| 2026-04-22 14:08 | -45.83561 | -64.85588 | 38823 ft | 444 kts | 21° |
| 2026-04-22 14:09 | -45.78010 | -64.81705 | 38821 ft | 444 kts | 21° |
| 2026-04-22 14:09 | -45.72505 | -64.77862 | 38824 ft | 444 kts | 21° |
| 2026-04-22 14:10 | -45.66962 | -64.74002 | 38824 ft | 444 kts | 21° |
| 2026-04-22 14:10 | -45.61410 | -64.70143 | 38821 ft | 444 kts | 21° |
| 2026-04-22 14:11 | -45.55896 | -64.66320 | 38832 ft | 444 kts | 21° |
| 2026-04-22 14:11 | -45.50355 | -64.62486 | 38818 ft | 443 kts | 21° |
| 2026-04-22 14:12 | -45.44797 | -64.58649 | 38828 ft | 444 kts | 21° |
| 2026-04-22 14:12 | -45.39269 | -64.54842 | 38832 ft | 443 kts | 21° |
| 2026-04-22 14:13 | -45.33713 | -64.51022 | 38835 ft | 444 kts | 21° |
| 2026-04-22 14:13 | -45.28157 | -64.47211 | 38830 ft | 444 kts | 21° |
| 2026-04-22 14:14 | -45.22607 | -64.43413 | 38823 ft | 444 kts | 21° |
| 2026-04-22 14:14 | -45.17100 | -64.39651 | 38837 ft | 443 kts | 21° |
| 2026-04-22 14:15 | -45.11548 | -64.35868 | 38842 ft | 443 kts | 20° |
| 2026-04-22 14:15 | -45.05998 | -64.32094 | 38832 ft | 444 kts | 20° |
| 2026-04-22 14:16 | -45.00457 | -64.28324 | 38839 ft | 444 kts | 20° |
| 2026-04-22 14:16 | -44.95071 | -64.24048 | 38841 ft | 447 kts | 24° |
| 2026-04-22 14:17 | -44.89702 | -64.19690 | 38848 ft | 446 kts | 24° |
| 2026-04-22 14:17 | -44.84318 | -64.15334 | 38848 ft | 446 kts | 24° |
| 2026-04-22 14:18 | -44.78965 | -64.11015 | 38842 ft | 447 kts | 23° |
| 2026-04-22 14:18 | -44.73574 | -64.06674 | 38847 ft | 446 kts | 23° |
| 2026-04-22 14:19 | -44.68222 | -64.02377 | 38845 ft | 446 kts | 23° |
| 2026-04-22 14:19 | -44.62837 | -63.98063 | 38848 ft | 446 kts | 23° |
| 2026-04-22 14:20 | -44.54787 | -63.91632 | 38851 ft | 446 kts | 23° |
| 2026-04-22 14:20 | -44.49399 | -63.87340 | 38846 ft | 446 kts | 23° |
| 2026-04-22 14:21 | -44.41326 | -63.80927 | 38843 ft | 444 kts | 23° |
| 2026-04-22 14:22 | -44.33268 | -63.74547 | 38855 ft | 445 kts | 23° |
| 2026-04-22 14:23 | -44.25198 | -63.68178 | 38855 ft | 446 kts | 23° |
| 2026-04-22 14:23 | -44.19819 | -63.63943 | 38850 ft | 446 kts | 23° |
| 2026-04-22 14:24 | -44.14470 | -63.59742 | 38864 ft | 445 kts | 23° |
| 2026-04-22 14:24 | -44.09095 | -63.55529 | 38861 ft | 445 kts | 23° |
| 2026-04-22 14:25 | -44.03722 | -63.51325 | 38863 ft | 444 kts | 23° |
| 2026-04-22 14:25 | -43.98327 | -63.47115 | 38862 ft | 444 kts | 23° |
| 2026-04-22 14:26 | -43.92966 | -63.42939 | 38861 ft | 444 kts | 23° |
| 2026-04-22 14:26 | -43.87559 | -63.38737 | 38867 ft | 444 kts | 23° |
| 2026-04-22 14:27 | -43.82199 | -63.34579 | 38861 ft | 444 kts | 22° |
| 2026-04-22 14:27 | -43.76831 | -63.30423 | 38871 ft | 444 kts | 22° |
| 2026-04-22 14:28 | -43.71447 | -63.26263 | 38878 ft | 443 kts | 22° |
| 2026-04-22 14:28 | -43.66085 | -63.22131 | 38858 ft | 444 kts | 22° |
| 2026-04-22 14:29 | -43.60708 | -63.17994 | 38861 ft | 443 kts | 22° |
| 2026-04-22 14:29 | -43.55347 | -63.13878 | 38868 ft | 443 kts | 22° |
| 2026-04-22 14:30 | -43.49977 | -63.09764 | 38863 ft | 442 kts | 22° |
| 2026-04-22 14:30 | -43.44616 | -63.05666 | 38863 ft | 443 kts | 22° |
| 2026-04-22 14:31 | -43.39223 | -63.01551 | 38859 ft | 443 kts | 22° |
| 2026-04-22 14:31 | -43.33863 | -62.97470 | 38878 ft | 442 kts | 22° |
| 2026-04-22 14:32 | -43.28473 | -62.93374 | 38874 ft | 443 kts | 22° |
| 2026-04-22 14:32 | -43.23122 | -62.89317 | 38874 ft | 443 kts | 22° |
| 2026-04-22 14:33 | -43.17726 | -62.85233 | 38886 ft | 443 kts | 22° |
| 2026-04-22 14:33 | -43.12329 | -62.81157 | 38873 ft | 443 kts | 22° |
| 2026-04-22 14:34 | -43.06963 | -62.77113 | 38874 ft | 443 kts | 22° |
| 2026-04-22 14:34 | -43.01556 | -62.73060 | 38884 ft | 442 kts | 21° |
| 2026-04-22 14:35 | -42.96068 | -62.69395 | 38886 ft | 441 kts | 19° |
| 2026-04-22 14:35 | -42.90577 | -62.65779 | 38887 ft | 440 kts | 19° |
| 2026-04-22 14:36 | -42.85081 | -62.62167 | 38888 ft | 440 kts | 19° |
| 2026-04-22 14:36 | -42.79587 | -62.58562 | 38893 ft | 439 kts | 19° |
| 2026-04-22 14:37 | -42.74088 | -62.54961 | 38896 ft | 439 kts | 19° |
| 2026-04-22 14:37 | -42.68588 | -62.51366 | 38893 ft | 440 kts | 19° |
| 2026-04-22 14:38 | -42.63081 | -62.47772 | 38894 ft | 439 kts | 18° |
| 2026-04-22 14:38 | -42.57571 | -62.44185 | 38903 ft | 439 kts | 19° |
| 2026-04-22 14:39 | -42.52082 | -62.40617 | 38895 ft | 439 kts | 19° |
| 2026-04-22 14:39 | -42.46609 | -62.37066 | 38898 ft | 439 kts | 18° |
| 2026-04-22 14:40 | -42.38370 | -62.31733 | 38898 ft | 438 kts | 18° |
| 2026-04-22 14:40 | -42.32857 | -62.28173 | 38898 ft | 438 kts | 18° |
| 2026-04-22 14:41 | -42.27382 | -62.24646 | 38901 ft | 438 kts | 18° |
| 2026-04-22 14:41 | -42.21882 | -62.21109 | 38894 ft | 438 kts | 18° |
| 2026-04-22 14:42 | -42.16351 | -62.17559 | 38898 ft | 438 kts | 18° |
| 2026-04-22 14:42 | -42.10953 | -62.14101 | 38899 ft | 439 kts | 18° |
| 2026-04-22 14:43 | -42.05407 | -62.10555 | 38903 ft | 438 kts | 18° |
| 2026-04-22 14:43 | -41.99904 | -62.07042 | 38904 ft | 438 kts | 17° |
| 2026-04-22 14:44 | -41.94427 | -62.03554 | 38909 ft | 438 kts | 17° |
| 2026-04-22 14:44 | -41.88923 | -62.00055 | 38929 ft | 438 kts | 17° |
| 2026-04-22 14:45 | -41.83432 | -61.96571 | 38927 ft | 438 kts | 17° |
| 2026-04-22 14:45 | -41.77946 | -61.93096 | 38930 ft | 438 kts | 17° |
| 2026-04-22 14:46 | -41.72441 | -61.89617 | 38932 ft | 438 kts | 17° |
| 2026-04-22 14:46 | -41.66926 | -61.86138 | 38932 ft | 439 kts | 17° |
| 2026-04-22 14:47 | -41.61415 | -61.82668 | 38927 ft | 439 kts | 17° |
| 2026-04-22 14:47 | -41.55906 | -61.79205 | 38928 ft | 440 kts | 17° |
| 2026-04-22 14:48 | -41.50391 | -61.75746 | 38934 ft | 440 kts | 17° |
| 2026-04-22 14:48 | -41.44833 | -61.72266 | 38940 ft | 440 kts | 17° |
| 2026-04-22 14:49 | -41.39315 | -61.68818 | 38940 ft | 441 kts | 17° |
| 2026-04-22 14:49 | -41.33754 | -61.65348 | 38936 ft | 441 kts | 17° |
| 2026-04-22 14:50 | -41.28225 | -61.61906 | 38946 ft | 441 kts | 17° |
| 2026-04-22 14:50 | -41.22675 | -61.58457 | 38942 ft | 442 kts | 17° |
| 2026-04-22 14:51 | -41.17099 | -61.54999 | 38952 ft | 442 kts | 17° |
| 2026-04-22 14:51 | -41.11555 | -61.51567 | 38953 ft | 442 kts | 17° |
| 2026-04-22 14:52 | -41.05959 | -61.48109 | 38963 ft | 443 kts | 17° |
| 2026-04-22 14:52 | -41.00382 | -61.44669 | 38966 ft | 443 kts | 17° |
| 2026-04-22 14:53 | -40.94823 | -61.41248 | 38957 ft | 444 kts | 17° |
| 2026-04-22 14:53 | -40.89207 | -61.37798 | 38966 ft | 444 kts | 17° |
| 2026-04-22 14:54 | -40.83601 | -61.34361 | 38964 ft | 445 kts | 16° |
| 2026-04-22 14:54 | -40.78006 | -61.30935 | 38974 ft | 444 kts | 16° |
| 2026-04-22 14:55 | -40.72400 | -61.27511 | 38980 ft | 445 kts | 15° |
| 2026-04-22 14:55 | -40.66796 | -61.24093 | 38970 ft | 445 kts | 15° |
| 2026-04-22 14:56 | -40.61192 | -61.20683 | 38974 ft | 445 kts | 15° |
| 2026-04-22 14:56 | -40.55580 | -61.17273 | 38977 ft | 446 kts | 15° |
| 2026-04-22 14:57 | -40.49952 | -61.13862 | 38977 ft | 446 kts | 15° |
| 2026-04-22 14:57 | -40.44333 | -61.10461 | 38979 ft | 447 kts | 15° |
| 2026-04-22 14:58 | -40.38668 | -61.07039 | 38980 ft | 448 kts | 15° |
| 2026-04-22 14:58 | -40.33038 | -61.03645 | 38982 ft | 449 kts | 15° |
| 2026-04-22 14:59 | -40.27346 | -61.00219 | 38982 ft | 450 kts | 15° |
| 2026-04-22 14:59 | -40.21668 | -60.96809 | 38981 ft | 450 kts | 15° |
| 2026-04-22 15:00 | -40.15944 | -60.93378 | 38988 ft | 451 kts | 15° |
| 2026-04-22 15:00 | -40.10270 | -60.89983 | 38985 ft | 451 kts | 15° |
| 2026-04-22 15:01 | -40.04569 | -60.86578 | 38989 ft | 451 kts | 15° |
| 2026-04-22 15:01 | -39.98871 | -60.83182 | 38994 ft | 452 kts | 15° |
| 2026-04-22 15:02 | -39.93148 | -60.79777 | 38993 ft | 453 kts | 15° |
| 2026-04-22 15:02 | -39.87391 | -60.76358 | 39004 ft | 453 kts | 15° |
| 2026-04-22 15:03 | -39.81655 | -60.72958 | 39019 ft | 454 kts | 15° |
| 2026-04-22 15:03 | -39.75901 | -60.69553 | 39020 ft | 455 kts | 15° |
| 2026-04-22 15:04 | -39.70196 | -60.66082 | 39021 ft | 460 kts | 19° |
| 2026-04-22 15:04 | -39.64815 | -60.61338 | 39030 ft | 476 kts | 32° |
| 2026-04-22 15:05 | -39.60255 | -60.55016 | 39035 ft | 493 kts | 46° |
| 2026-04-22 15:05 | -39.56310 | -60.47701 | 39033 ft | 496 kts | 48° |
| 2026-04-22 15:06 | -39.52376 | -60.40385 | 39034 ft | 496 kts | 48° |
| 2026-04-22 15:06 | -39.48451 | -60.33108 | 39033 ft | 495 kts | 47° |
| 2026-04-22 15:07 | -39.44510 | -60.25819 | 39032 ft | 493 kts | 47° |
| 2026-04-22 15:07 | -39.40590 | -60.18589 | 39036 ft | 493 kts | 47° |
| 2026-04-22 15:08 | -39.36666 | -60.11372 | 39036 ft | 494 kts | 47° |
| 2026-04-22 15:08 | -39.32722 | -60.04133 | 39037 ft | 494 kts | 47° |
| 2026-04-22 15:09 | -39.28769 | -59.96895 | 39041 ft | 494 kts | 47° |
| 2026-04-22 15:09 | -39.24815 | -59.89674 | 39025 ft | 494 kts | 47° |
| 2026-04-22 15:10 | -39.20870 | -59.82483 | 39017 ft | 494 kts | 48° |
| 2026-04-22 15:10 | -39.16893 | -59.75252 | 39016 ft | 495 kts | 48° |
| 2026-04-22 15:11 | -39.12937 | -59.68075 | 39019 ft | 495 kts | 48° |
| 2026-04-22 15:11 | -39.08944 | -59.60848 | 39017 ft | 495 kts | 48° |
| 2026-04-22 15:12 | -39.04961 | -59.53656 | 39004 ft | 496 kts | 48° |
| 2026-04-22 15:12 | -39.00975 | -59.46472 | 39019 ft | 495 kts | 48° |
| 2026-04-22 15:13 | -38.96979 | -59.39289 | 39017 ft | 495 kts | 48° |
| 2026-04-22 15:13 | -38.92979 | -59.32113 | 39021 ft | 495 kts | 47° |
| 2026-04-22 15:14 | -38.88952 | -59.24907 | 39019 ft | 495 kts | 47° |
| 2026-04-22 15:14 | -38.84912 | -59.17691 | 39013 ft | 495 kts | 47° |
| 2026-04-22 15:15 | -38.80881 | -59.10506 | 39018 ft | 495 kts | 47° |
| 2026-04-22 15:15 | -38.76863 | -59.03360 | 39015 ft | 495 kts | 47° |
| 2026-04-22 15:16 | -38.72857 | -58.96249 | 39016 ft | 495 kts | 47° |
| 2026-04-22 15:16 | -38.68835 | -58.89127 | 39008 ft | 495 kts | 48° |
| 2026-04-22 15:17 | -38.64800 | -58.81998 | 39017 ft | 495 kts | 48° |
| 2026-04-22 15:17 | -38.60775 | -58.74902 | 39012 ft | 494 kts | 48° |
| 2026-04-22 15:18 | -38.56755 | -58.67831 | 39015 ft | 494 kts | 47° |
| 2026-04-22 15:18 | -38.52697 | -58.60708 | 39008 ft | 495 kts | 48° |
| 2026-04-22 15:19 | -38.48673 | -58.53659 | 39013 ft | 495 kts | 48° |
| 2026-04-22 15:19 | -38.44614 | -58.46566 | 39007 ft | 495 kts | 48° |
| 2026-04-22 15:20 | -38.40553 | -58.39483 | 39010 ft | 495 kts | 48° |
| 2026-04-22 15:20 | -38.36504 | -58.32436 | 39003 ft | 495 kts | 47° |
| 2026-04-22 15:21 | -38.32432 | -58.25365 | 39003 ft | 494 kts | 47° |
| 2026-04-22 15:21 | -38.28370 | -58.18328 | 39011 ft | 495 kts | 47° |
| 2026-04-22 15:22 | -38.24287 | -58.11270 | 39013 ft | 495 kts | 47° |
| 2026-04-22 15:22 | -38.20228 | -58.04267 | 39007 ft | 495 kts | 47° |
| 2026-04-22 15:23 | -38.16154 | -57.97253 | 39005 ft | 495 kts | 47° |
| 2026-04-22 15:23 | -38.12066 | -57.90231 | 39010 ft | 495 kts | 47° |
| 2026-04-22 15:24 | -38.07987 | -57.83240 | 38998 ft | 494 kts | 47° |
| 2026-04-22 15:24 | -38.03891 | -57.76232 | 39009 ft | 494 kts | 47° |
| 2026-04-22 15:25 | -37.99787 | -57.69228 | 39001 ft | 494 kts | 47° |
| 2026-04-22 15:25 | -37.95510 | -57.62409 | 38999 ft | 489 kts | 40° |
| 2026-04-22 15:26 | -37.90367 | -57.56964 | 38995 ft | 477 kts | 26° |
| 2026-04-22 15:26 | -37.84554 | -57.53180 | 38995 ft | 466 kts | 15° |
| 2026-04-22 15:27 | -37.78514 | -57.50000 | 39001 ft | 466 kts | 15° |
| 2026-04-22 15:27 | -37.72526 | -57.46847 | 38992 ft | 466 kts | 15° |
| 2026-04-22 15:28 | -37.66529 | -57.43695 | 38999 ft | 466 kts | 15° |
| 2026-04-22 15:28 | -37.60553 | -57.40561 | 38998 ft | 466 kts | 15° |
| 2026-04-22 15:29 | -37.54559 | -57.37422 | 39005 ft | 468 kts | 15° |
| 2026-04-22 15:30 | -37.45558 | -57.32717 | 39007 ft | 468 kts | 14° |
| 2026-04-22 15:30 | -37.39518 | -57.29567 | 38999 ft | 468 kts | 14° |
| 2026-04-22 15:31 | -37.33523 | -57.26445 | 38999 ft | 468 kts | 14° |
| 2026-04-22 15:31 | -37.27519 | -57.23325 | 39007 ft | 469 kts | 14° |
| 2026-04-22 15:32 | -37.21484 | -57.20194 | 39009 ft | 469 kts | 13° |
| 2026-04-22 15:32 | -37.15463 | -57.17076 | 39004 ft | 470 kts | 13° |
| 2026-04-22 15:33 | -37.09396 | -57.13939 | 39007 ft | 471 kts | 13° |
| 2026-04-22 15:33 | -37.03357 | -57.10822 | 39018 ft | 471 kts | 13° |
| 2026-04-22 15:34 | -36.97302 | -57.07702 | 39015 ft | 471 kts | 13° |
| 2026-04-22 15:34 | -36.91229 | -57.04578 | 39018 ft | 472 kts | 13° |
| 2026-04-22 15:35 | -36.86167 | -57.01979 | 39013 ft | 472 kts | 13° |
| 2026-04-22 15:35 | -36.79066 | -56.98338 | 39009 ft | 473 kts | 13° |
| 2026-04-22 15:36 | -36.72949 | -56.95219 | 38742 ft | 477 kts | 12° |
| 2026-04-22 15:36 | -36.69857 | -56.93672 | 38497 ft | 478 kts | 12° |
| 2026-04-22 15:36 | -36.66774 | -56.92131 | 38265 ft | 477 kts | 12° |
| 2026-04-22 15:36 | -36.63721 | -56.90605 | 38022 ft | 476 kts | 12° |
| 2026-04-22 15:37 | -36.60653 | -56.89075 | 37781 ft | 476 kts | 12° |
| 2026-04-22 15:37 | -36.57572 | -56.87539 | 37532 ft | 476 kts | 12° |
| 2026-04-22 15:37 | -36.54498 | -56.86007 | 37285 ft | 476 kts | 12° |
| 2026-04-22 15:37 | -36.51445 | -56.84489 | 37042 ft | 477 kts | 12° |
| 2026-04-22 15:38 | -36.48340 | -56.82946 | 36795 ft | 478 kts | 12° |
| 2026-04-22 15:38 | -36.42154 | -56.79874 | 36300 ft | 479 kts | 12° |
| 2026-04-22 15:38 | -36.39103 | -56.78361 | 36050 ft | 479 kts | 12° |
| 2026-04-22 15:39 | -36.36011 | -56.76828 | 35806 ft | 479 kts | 12° |
| 2026-04-22 15:39 | -36.32879 | -56.75278 | 35553 ft | 480 kts | 12° |
| 2026-04-22 15:39 | -36.29768 | -56.73740 | 35305 ft | 481 kts | 12° |
| 2026-04-22 15:39 | -36.26689 | -56.72218 | 35059 ft | 481 kts | 12° |
| 2026-04-22 15:40 | -36.23575 | -56.70679 | 34813 ft | 482 kts | 12° |
| 2026-04-22 15:40 | -36.20412 | -56.69119 | 34567 ft | 482 kts | 12° |
| 2026-04-22 15:40 | -36.17300 | -56.67585 | 34319 ft | 483 kts | 12° |
| 2026-04-22 15:40 | -36.14158 | -56.66037 | 34068 ft | 484 kts | 12° |
| 2026-04-22 15:41 | -36.11050 | -56.64508 | 33791 ft | 485 kts | 12° |
| 2026-04-22 15:41 | -36.07908 | -56.62964 | 33203 ft | 488 kts | 12° |
| 2026-04-22 15:41 | -36.04768 | -56.61418 | 32598 ft | 484 kts | 13° |
| 2026-04-22 15:41 | -36.01666 | -56.59892 | 31964 ft | 478 kts | 13° |
| 2026-04-22 15:42 | -35.98581 | -56.58374 | 31339 ft | 472 kts | 13° |
| 2026-04-22 15:42 | -35.95540 | -56.56881 | 30712 ft | 467 kts | 13° |
| 2026-04-22 15:42 | -35.92547 | -56.55412 | 30101 ft | 461 kts | 14° |
| 2026-04-22 15:42 | -35.89571 | -56.53954 | 29494 ft | 455 kts | 14° |
| 2026-04-22 15:43 | -35.86636 | -56.52516 | 28885 ft | 449 kts | 14° |
| 2026-04-22 15:43 | -35.83760 | -56.51109 | 28302 ft | 442 kts | 14° |
| 2026-04-22 15:43 | -35.80888 | -56.49706 | 27714 ft | 437 kts | 14° |
| 2026-04-22 15:43 | -35.78095 | -56.48343 | 27132 ft | 431 kts | 13° |
| 2026-04-22 15:44 | -35.75341 | -56.47000 | 26581 ft | 426 kts | 14° |
| 2026-04-22 15:44 | -35.72608 | -56.45668 | 26004 ft | 421 kts | 14° |
| 2026-04-22 15:44 | -35.69888 | -56.44346 | 25458 ft | 419 kts | 14° |
| 2026-04-22 15:44 | -35.67163 | -56.43022 | 24893 ft | 416 kts | 14° |
| 2026-04-22 15:45 | -35.64496 | -56.41727 | 24354 ft | 413 kts | 14° |
| 2026-04-22 15:45 | -35.61849 | -56.40442 | 23808 ft | 409 kts | 14° |
| 2026-04-22 15:45 | -35.59219 | -56.39166 | 23267 ft | 406 kts | 14° |
| 2026-04-22 15:45 | -35.56595 | -56.37893 | 22722 ft | 401 kts | 14° |
| 2026-04-22 15:46 | -35.54021 | -56.36646 | 22207 ft | 398 kts | 14° |
| 2026-04-22 15:46 | -35.51463 | -56.35408 | 21683 ft | 395 kts | 14° |
| 2026-04-22 15:46 | -35.48904 | -56.34170 | 21155 ft | 392 kts | 14° |
| 2026-04-22 15:46 | -35.46385 | -56.32953 | 20645 ft | 389 kts | 14° |
| 2026-04-22 15:47 | -35.43869 | -56.31738 | 20127 ft | 387 kts | 14° |
| 2026-04-22 15:47 | -35.41380 | -56.30536 | 19613 ft | 385 kts | 14° |
| 2026-04-22 15:47 | -35.38957 | -56.29368 | 19114 ft | 382 kts | 14° |
| 2026-04-22 15:47 | -35.36552 | -56.28208 | 18625 ft | 380 kts | 14° |
| 2026-04-22 15:48 | -35.34125 | -56.27039 | 18126 ft | 377 kts | 15° |
| 2026-04-22 15:48 | -35.31692 | -56.25867 | 17633 ft | 375 kts | 15° |
| 2026-04-22 15:48 | -35.29254 | -56.24691 | 17131 ft | 373 kts | 15° |
| 2026-04-22 15:48 | -35.26879 | -56.23535 | 16649 ft | 371 kts | 15° |
| 2026-04-22 15:49 | -35.24472 | -56.22363 | 16159 ft | 370 kts | 15° |
| 2026-04-22 15:49 | -35.22094 | -56.21207 | 15678 ft | 368 kts | 15° |
| 2026-04-22 15:49 | -35.19724 | -56.20054 | 15191 ft | 364 kts | 16° |
| 2026-04-22 15:49 | -35.17392 | -56.18919 | 14714 ft | 357 kts | 16° |
| 2026-04-22 15:50 | -35.15093 | -56.17800 | 14240 ft | 351 kts | 15° |
| 2026-04-22 15:50 | -35.12866 | -56.16719 | 13787 ft | 347 kts | 16° |
| 2026-04-22 15:50 | -35.10616 | -56.15629 | 13328 ft | 347 kts | 16° |
| 2026-04-22 15:50 | -35.08371 | -56.14542 | 12869 ft | 345 kts | 17° |
| 2026-04-22 15:51 | -35.06155 | -56.13448 | 12415 ft | 343 kts | 20° |
| 2026-04-22 15:51 | -35.04136 | -56.11886 | 11949 ft | 348 kts | 37° |
| 2026-04-22 15:51 | -35.02589 | -56.09633 | 11465 ft | 351 kts | 56° |
| 2026-04-22 15:51 | -35.01414 | -56.07057 | 10922 ft | 342 kts | 60° |
| 2026-04-22 15:52 | -35.00306 | -56.04565 | 10544 ft | 327 kts | 59° |
| 2026-04-22 15:52 | -34.99239 | -56.02178 | 10110 ft | 316 kts | 59° |
| 2026-04-22 15:52 | -34.98204 | -55.99864 | 9706 ft | 306 kts | 59° |
| 2026-04-22 15:52 | -34.97189 | -55.97598 | 9216 ft | 301 kts | 59° |
| 2026-04-22 15:53 | -34.96197 | -55.95388 | 8832 ft | 291 kts | 59° |
| 2026-04-22 15:53 | -34.95245 | -55.93265 | 8450 ft | 283 kts | 59° |
| 2026-04-22 15:53 | -34.94305 | -55.91173 | 8089 ft | 275 kts | 59° |
| 2026-04-22 15:53 | -34.93395 | -55.89147 | 7723 ft | 272 kts | 59° |
| 2026-04-22 15:54 | -34.92489 | -55.87136 | 7363 ft | 271 kts | 59° |
| 2026-04-22 15:54 | -34.91590 | -55.85140 | 7001 ft | 270 kts | 59° |
| 2026-04-22 15:54 | -34.90578 | -55.83252 | 6664 ft | 265 kts | 42° |
| 2026-04-22 15:54 | -34.89103 | -55.81989 | 6316 ft | 255 kts | 18° |
| 2026-04-22 15:55 | -34.87413 | -55.81356 | 5973 ft | 249 kts | 7° |
| 2026-04-22 15:55 | -34.85724 | -55.80979 | 5642 ft | 247 kts | 2° |
| 2026-04-22 15:55 | -34.84024 | -55.80797 | 5314 ft | 244 kts | 357° |
| 2026-04-22 15:55 | -34.82339 | -55.80813 | 4988 ft | 241 kts | 352° |
| 2026-04-22 15:56 | -34.80677 | -55.81018 | 4670 ft | 237 kts | 346° |
| 2026-04-22 15:56 | -34.79050 | -55.81408 | 4347 ft | 235 kts | 341° |
| 2026-04-22 15:56 | -34.77518 | -55.81959 | 4233 ft | 225 kts | 336° |
| 2026-04-22 15:56 | -34.76042 | -55.82690 | 4403 ft | 222 kts | 329° |
| 2026-04-22 15:57 | -34.74643 | -55.83387 | 4523 ft | 222 kts | 345° |
| 2026-04-22 15:57 | -34.73081 | -55.83510 | 4623 ft | 214 kts | 347° |
| 2026-04-22 15:57 | -34.71877 | -55.84241 | 4598 ft | 181 kts | 304° |
| 2026-04-22 15:57 | -34.71605 | -55.85597 | 4468 ft | 164 kts | 254° |
| 2026-04-22 15:58 | -34.72327 | -55.86634 | 4002 ft | 179 kts | 209° |
| 2026-04-22 15:58 | -34.73603 | -55.86982 | 3271 ft | 196 kts | 195° |
| 2026-04-22 15:58 | -34.74686 | -55.87804 | 2885 ft | 180 kts | 233° |
| 2026-04-22 15:58 | -34.75319 | -55.89045 | 2554 ft | 162 kts | 238° |
| 2026-04-22 15:59 | -34.75928 | -55.90093 | 2359 ft | 137 kts | 235° |
| 2026-04-22 15:59 | -34.76446 | -55.90946 | 2203 ft | 121 kts | 236° |
| 2026-04-22 15:59 | -34.76940 | -55.91764 | 2007 ft | 116 kts | 235° |
| 2026-04-22 15:59 | -34.77418 | -55.92550 | 1855 ft | 115 kts | 235° |
| 2026-04-22 16:00 | -34.77894 | -55.93332 | 1701 ft | 115 kts | 236° |
| 2026-04-22 16:00 | -34.78363 | -55.94100 | 1559 ft | 114 kts | 236° |
| 2026-04-22 16:00 | -34.78840 | -55.94881 | 1394 ft | 114 kts | 236° |
| 2026-04-22 16:00 | -34.79315 | -55.95660 | 1254 ft | 116 kts | 236° |
| 2026-04-22 16:01 | -34.79797 | -55.96447 | 1093 ft | 116 kts | 235° |
| 2026-04-22 16:01 | -34.80278 | -55.97233 | 938 ft | 115 kts | 236° |
| 2026-04-22 16:01 | -34.80761 | -55.98023 | 784 ft | 116 kts | 236° |
| 2026-04-22 16:01 | -34.81241 | -55.98810 | 647 ft | 116 kts | 236° |
| 2026-04-22 16:02 | -34.81722 | -55.99607 | 487 ft | 116 kts | 236° |
| 2026-04-22 16:02 | -34.82204 | -56.00397 | 320 ft | 116 kts | 237° |
| 2026-04-22 16:02 | -34.82685 | -56.01187 | 144 ft | 116 kts | 237° |
| 2026-04-22 16:02 | -34.83128 | -56.01918 | 82 ft | 94 kts | 233° |
| 2026-04-22 16:03 | -34.83382 | -56.02333 | 75 ft | 36 kts | 233° |
| 2026-04-22 16:03 | -34.83512 | -56.02547 | 72 ft | 30 kts | 234° |
| 2026-04-22 16:03 | -34.83637 | -56.02751 | 69 ft | 15 kts | 233° |
| 2026-04-22 16:03 | -34.83703 | -56.02846 | 68 ft | 15 kts | 206° |
| 2026-04-22 16:04 | -34.83810 | -56.02846 | 66 ft | 17 kts | 179° |
| 2026-04-22 16:04 | -34.83908 | -56.02829 | 64 ft | 13 kts | 154° |
| 2026-04-22 16:04 | -34.83975 | -56.02776 | 63 ft | 3 kts | 145° |
| 2026-04-22 16:04 | -34.84007 | -56.02741 | 63 ft | 8 kts | 130° |
| 2026-04-22 16:05 | -34.84042 | -56.02708 | 62 ft | 2 kts | 191° |
| 2026-04-22 16:05 | -34.84052 | -56.02726 | 62 ft | 2 kts | 309° |
| 2026-04-22 16:05 | -34.84042 | -56.02730 | 62 ft | 0 kts | 335° |
| 2026-04-22 16:05 | -34.84040 | -56.02732 | 62 ft | 0 kts | 323° |